Time;durP1;ratioP1;P1;durP2;ratioP2;P2;SDS_P1;SDS_P2;PMS_P1;PMS_P2;Temp;Humidity;BMP_temperature;BMP_pressure;BME280_temperature;BME280_humidity;BME280_pressure;Samples;Min_cycle;Max_cycle;Signal;HPM_P1;HPM_P2
2023/01/19 00:02:06;;;;;;;0.63;0.63;;;;;;;1.22;79.72;99675.13;5097081;28;20043;-81
2023/01/19 00:04:36;;;;;;;1.02;1.02;;;;;;;1.24;79.28;99672.53;5111319;28;20040;-81
2023/01/19 00:07:06;;;;;;;0.57;0.57;;;;;;;1.21;79.13;99675.97;5115128;28;20046;-81
2023/01/19 00:09:38;;;;;;;0.50;0.50;;;;;;;1.23;79.37;99666.50;5130682;28;20027;-80
2023/01/19 00:12:09;;;;;;;1.30;1.20;;;;;;;1.13;79.59;99672.56;5118818;28;20055;-80
2023/01/19 00:14:39;;;;;;;0.77;0.77;;;;;;;1.18;79.42;99670.84;5129954;28;20075;-80
2023/01/19 00:17:10;;;;;;;0.40;0.40;;;;;;;1.26;78.89;99670.78;5099872;29;20098;-80
2023/01/19 00:19:40;;;;;;;0.43;0.43;;;;;;;1.15;79.39;99678.59;5110887;29;20146;-80
2023/01/19 00:22:11;;;;;;;0.38;0.38;;;;;;;1.21;79.42;99675.97;5112574;28;20047;-80
2023/01/19 00:24:41;;;;;;;0.47;0.47;;;;;;;1.15;79.75;99678.59;5115431;28;20075;-81
2023/01/19 00:27:12;;;;;;;0.32;0.32;;;;;;;1.15;79.46;99670.00;5100586;28;20038;-81
2023/01/19 00:29:42;;;;;;;3.50;2.10;;;;;;;1.18;79.66;99677.72;5134599;28;20109;-80
2023/01/19 00:32:13;;;;;;;1.10;0.60;;;;;;;1.13;80.10;99672.56;5115731;28;20122;-81
2023/01/19 00:34:48;;;;;;;4.57;1.90;;;;;;;1.15;79.64;99676.03;5129478;28;20039;-80
2023/01/19 00:37:19;;;;;;;1.40;1.30;;;;;;;1.20;79.48;99669.09;5123920;28;20537;-81
2023/01/19 00:39:49;;;;;;;0.50;0.50;;;;;;;1.20;79.02;99676.00;5118043;29;20044;-79
2023/01/19 00:45:11;;;;;;;0.77;0.77;;;;;;;1.29;79.18;99678.53;5119084;29;20035;-79
2023/01/19 00:47:42;;;;;;;1.45;1.40;;;;;;;1.19;79.41;99684.59;5136613;28;20078;-79
2023/01/19 00:50:15;;;;;;;0.93;0.93;;;;;;;1.19;79.32;99682.91;5131312;28;20087;-79
2023/01/19 00:52:46;;;;;;;0.98;0.98;;;;;;;1.12;79.79;99690.69;5117342;28;20038;-81
2023/01/19 00:55:16;;;;;;;0.52;0.52;;;;;;;1.14;80.15;99691.53;5105163;28;20034;-80
2023/01/19 00:57:47;;;;;;;0.30;0.30;;;;;;;1.17;79.45;99688.91;5131716;28;20067;-80
2023/01/19 01:00:19;;;;;;;0.50;0.50;;;;;;;1.14;79.85;99688.97;5121623;29;20055;-79
2023/01/19 01:02:51;;;;;;;0.35;0.35;;;;;;;1.13;80.30;99693.25;5133094;28;20043;-80
2023/01/19 01:05:22;;;;;;;0.68;0.68;;;;;;;1.15;79.37;99686.34;5113090;29;20107;-80
2023/01/19 01:07:53;;;;;;;1.50;1.40;;;;;;;1.12;79.69;99688.94;5127240;28;20039;-79
2023/01/19 01:10:27;;;;;;;1.08;1.08;;;;;;;1.13;80.41;99690.66;5119712;29;20115;-79
2023/01/19 01:12:57;;;;;;;0.40;0.40;;;;;;;1.19;80.01;99690.66;5124089;28;20058;-79
2023/01/19 01:15:28;;;;;;;0.68;0.68;;;;;;;1.24;79.49;99678.56;5117974;28;20073;-79
2023/01/19 01:17:59;;;;;;;0.47;0.47;;;;;;;1.23;79.75;99687.16;5133378;28;20077;-79
2023/01/19 01:20:31;;;;;;;0.50;0.50;;;;;;;1.23;79.67;99689.75;5110017;28;20034;-79
2023/01/19 01:23:02;;;;;;;0.50;0.50;;;;;;;1.22;79.47;99688.03;5135071;28;20038;-78
2023/01/19 01:25:36;;;;;;;0.68;0.68;;;;;;;1.21;79.77;99691.47;5125687;28;20031;-78
2023/01/19 01:28:07;;;;;;;7.05;1.42;;;;;;;1.24;79.79;99691.47;5142539;28;20623;-78
2023/01/19 01:30:39;;;;;;;0.75;0.75;;;;;;;1.25;79.49;99693.19;5137894;28;20035;-78
2023/01/19 01:33:13;;;;;;;0.88;0.88;;;;;;;1.20;79.77;99694.94;5139818;28;20358;-79
2023/01/19 01:35:43;;;;;;;1.33;1.33;;;;;;;1.19;79.78;99695.81;5130226;28;20039;-79
2023/01/19 01:38:14;;;;;;;0.38;0.38;;;;;;;1.20;80.03;99692.34;5136608;28;20497;-79
2023/01/19 01:40:45;;;;;;;0.40;0.40;;;;;;;1.20;80.13;99694.94;5141682;28;20043;-81
2023/01/19 01:43:17;;;;;;;0.30;0.30;;;;;;;1.21;80.38;99686.31;5138684;28;20669;-79
2023/01/19 01:45:48;;;;;;;0.70;0.70;;;;;;;1.25;79.58;99688.03;5140300;28;20170;-79
2023/01/19 01:48:29;;;;;;;0.77;0.77;;;;;;;1.18;79.77;99694.09;5138407;28;20148;-79
2023/01/19 01:54:20;;;;;;;0.47;0.47;;;;;;;1.13;80.38;99685.50;5123683;28;20450;-80
2023/01/19 01:56:55;;;;;;;0.30;0.30;;;;;;;1.13;80.17;99684.66;5118813;28;20135;-81
2023/01/19 01:59:33;;;;;;;0.40;0.40;;;;;;;1.22;79.60;99674.28;5140361;28;20445;-79
2023/01/19 02:05:03;;;;;;;0.38;0.38;;;;;;;1.12;79.98;99683.78;5142702;28;20639;-80
2023/01/19 02:13:32;;;;;;;0.40;0.40;;;;;;;1.12;80.32;99682.94;5122983;28;20042;-81
2023/01/19 02:16:06;;;;;;;1.13;1.13;;;;;;;1.07;80.30;99682.94;5123103;28;20077;-80
2023/01/19 02:18:37;;;;;;;0.30;0.30;;;;;;;1.13;79.85;99688.06;5135860;28;20023;-80
2023/01/19 02:21:21;;;;;;;0.30;0.30;;;;;;;1.05;80.51;99684.69;5123092;28;20121;-80
2023/01/19 02:23:57;;;;;;;0.25;0.25;;;;;;;1.08;80.01;99685.53;5138516;28;20030;-80
2023/01/19 02:26:39;;;;;;;1.48;1.38;;;;;;;1.08;80.37;99690.69;5126796;28;20049;-80
2023/01/19 02:29:12;;;;;;;0.30;0.30;;;;;;;1.09;79.91;99691.56;5141333;28;20023;-79
2023/01/19 02:31:44;;;;;;;0.30;0.30;;;;;;;1.02;80.38;99695.88;5135680;28;20677;-80
2023/01/19 02:34:17;;;;;;;0.40;0.40;;;;;;;1.06;80.07;99696.72;5132773;28;20031;-80
2023/01/19 02:37:02;;;;;;;;;;;;;;;1.03;80.63;99694.19;5132566;28;20042;-80
2023/01/19 02:39:41;;;;;;;0.77;0.68;;;;;;;1.05;80.38;99689.84;5116300;28;19921;-80
2023/01/19 02:42:18;;;;;;;0.65;0.65;;;;;;;1.04;80.38;99695.88;5130542;28;20129;-80
2023/01/19 02:44:51;;;;;;;0.30;0.30;;;;;;;1.10;80.67;99688.13;5142131;28;20166;-81
2023/01/19 02:47:23;;;;;;;3.95;2.40;;;;;;;1.11;79.83;99689.84;5123681;28;20038;-81
2023/01/19 02:49:58;;;;;;;0.40;0.40;;;;;;;1.09;80.36;99688.97;5123506;28;20038;-81
2023/01/19 02:52:29;;;;;;;0.30;0.30;;;;;;;1.06;79.89;99687.28;5118602;28;20068;-81
2023/01/19 02:55:14;;;;;;;0.63;0.63;;;;;;;1.05;80.23;99685.56;5132653;28;20031;-79
2023/01/19 02:58:10;;;;;;;0.30;0.30;;;;;;;1.03;80.28;99696.75;5121241;28;20047;-81
2023/01/19 03:00:41;;;;;;;0.30;0.30;;;;;;;1.00;80.55;99678.69;5118621;28;20326;-80
2023/01/19 03:03:35;;;;;;;0.30;0.30;;;;;;;1.04;79.97;99683.81;5121319;28;20046;-80
2023/01/19 03:06:42;;;;;;;1.20;1.15;;;;;;;1.03;80.02;99676.09;5140825;28;20047;-81
2023/01/19 03:09:18;;;;;;;0.50;0.50;;;;;;;0.99;80.26;99679.53;5114138;28;20073;-80
2023/01/19 03:12:03;;;;;;;0.30;0.30;;;;;;;1.01;79.95;99683.00;5142222;28;20051;-81
2023/01/19 03:14:41;;;;;;;0.35;0.35;;;;;;;0.99;80.66;99690.75;5139417;28;20039;-81
2023/01/19 03:17:16;;;;;;;0.40;0.40;;;;;;;1.07;80.08;99682.94;5131132;28;20043;-80
2023/01/19 03:19:49;;;;;;;0.30;0.30;;;;;;;0.98;79.90;99688.16;5129783;28;20597;-79
2023/01/19 03:22:28;;;;;;;2.43;0.80;;;;;;;0.98;79.99;99680.41;5141818;28;20130;-81
2023/01/19 03:25:01;;;;;;;0.30;0.30;;;;;;;0.99;80.54;99682.13;5140055;28;20367;-79
2023/01/19 03:27:40;;;;;;;0.70;0.70;;;;;;;1.05;80.24;99688.13;5121083;28;20043;-80
2023/01/19 03:30:21;;;;;;;0.68;0.68;;;;;;;1.06;80.18;99681.22;5110017;28;20019;-80
2023/01/19 03:33:30;;;;;;;0.20;0.20;;;;;;;1.06;80.21;99689.84;5118438;28;20065;-79
2023/01/19 03:36:07;;;;;;;0.20;0.20;;;;;;;1.07;79.85;99681.25;5085092;28;20107;-80
2023/01/19 03:38:40;;;;;;;0.30;0.30;;;;;;;1.06;80.15;99678.66;5122003;28;20035;-80
2023/01/19 03:41:15;;;;;;;0.30;0.30;;;;;;;1.06;79.79;99683.81;5119912;28;20134;-81
2023/01/19 03:43:47;;;;;;;0.50;0.50;;;;;;;1.08;79.67;99695.00;5135475;28;20412;-81
2023/01/19 03:46:19;;;;;;;0.30;0.30;;;;;;;1.08;80.18;99689.84;5127001;28;20460;-80
2023/01/19 03:48:50;;;;;;;1.00;1.00;;;;;;;1.09;80.47;99691.56;5121702;28;20043;-80
2023/01/19 03:51:21;;;;;;;0.30;0.30;;;;;;;1.08;80.36;99697.59;5124010;28;20130;-79
2023/01/19 03:53:51;;;;;;;0.35;0.35;;;;;;;1.09;80.33;99701.91;5126103;28;20058;-80
2023/01/19 03:56:24;;;;;;;1.13;1.13;;;;;;;1.08;80.41;99701.03;5124326;28;20039;-81
2023/01/19 03:58:54;;;;;;;0.40;0.40;;;;;;;1.08;80.71;99705.34;5122364;28;20078;-81
2023/01/19 04:01:25;;;;;;;0.68;0.68;;;;;;;1.11;80.44;99710.50;5129553;28;20034;-81
2023/01/19 04:03:55;;;;;;;0.80;0.50;;;;;;;1.11;80.36;99713.09;5133025;28;20034;-81
2023/01/19 04:06:27;;;;;;;0.40;0.40;;;;;;;1.12;80.56;99707.03;5131053;28;20030;-79
2023/01/19 04:08:57;;;;;;;0.60;0.60;;;;;;;1.14;80.74;99715.63;5104455;28;20035;-80
2023/01/19 04:11:27;;;;;;;0.40;0.40;;;;;;;1.12;80.70;99707.03;5133693;28;20121;-80
2023/01/19 04:13:58;;;;;;;1.27;1.23;;;;;;;1.11;80.66;99705.34;5097070;28;20086;-79
2023/01/19 04:16:29;;;;;;;0.63;0.63;;;;;;;1.15;81.31;99706.19;5100467;28;20046;-80
2023/01/19 04:18:59;;;;;;;0.30;0.30;;;;;;;1.18;81.10;99706.16;5115513;28;20702;-80
2023/01/19 04:21:29;;;;;;;0.30;0.30;;;;;;;1.16;81.06;99708.75;5109112;28;20041;-79
2023/01/19 04:24:00;;;;;;;0.45;0.45;;;;;;;1.19;80.93;99706.16;5135745;28;20030;-79
2023/01/19 04:26:30;;;;;;;0.50;0.50;;;;;;;1.19;80.58;99711.31;5135753;28;20043;-80
2023/01/19 04:29:01;;;;;;;0.50;0.50;;;;;;;1.21;81.16;99706.16;5116958;28;20049;-80
2023/01/19 04:31:32;;;;;;;0.80;0.80;;;;;;;1.23;80.49;99707.00;5130415;28;20065;-80
2023/01/19 04:34:02;;;;;;;0.65;0.65;;;;;;;1.26;80.65;99706.97;5115753;28;20039;-80
2023/01/19 04:36:33;;;;;;;0.38;0.38;;;;;;;1.28;80.84;99702.66;5131839;28;20039;-80
2023/01/19 04:39:04;;;;;;;0.70;0.70;;;;;;;1.26;81.18;99696.63;5131844;28;20046;-80
2023/01/19 04:41:34;;;;;;;2.00;1.45;;;;;;;1.24;81.43;99699.22;5126442;28;20050;-80
2023/01/19 04:44:05;;;;;;;3.40;1.85;;;;;;;1.26;80.98;99704.38;5119506;28;20174;-79
2023/01/19 04:46:35;;;;;;;3.60;2.15;;;;;;;1.27;81.01;99705.25;5116430;28;20181;-80
2023/01/19 04:49:06;;;;;;;0.52;0.52;;;;;;;1.24;81.81;99712.16;5106329;28;20490;-80
2023/01/19 04:51:36;;;;;;;0.45;0.45;;;;;;;1.22;82.22;99711.28;5130882;28;20035;-79
2023/01/19 04:54:08;;;;;;;0.52;0.52;;;;;;;1.22;82.95;99719.03;5134569;28;20041;-79
2023/01/19 04:56:39;;;;;;;0.52;0.52;;;;;;;1.19;83.93;99708.75;5123757;28;20030;-79
2023/01/19 04:59:10;;;;;;;1.05;1.05;;;;;;;1.13;85.24;99716.50;5106551;28;20034;-80
2023/01/19 05:01:40;;;;;;;0.50;0.50;;;;;;;1.08;85.35;99713.94;5131546;28;20039;-79
2023/01/19 05:04:11;;;;;;;0.40;0.40;;;;;;;1.04;85.84;99719.13;5137750;28;20073;-80
2023/01/19 05:06:41;;;;;;;0.57;0.57;;;;;;;1.02;86.67;99713.13;5121137;28;20046;-80
2023/01/19 05:09:14;;;;;;;0.93;0.93;;;;;;;0.97;86.88;99725.19;5126503;28;20094;-80
2023/01/19 05:11:45;;;;;;;0.77;0.77;;;;;;;0.97;87.41;99730.34;5135087;28;20039;-80
2023/01/19 05:14:15;;;;;;;0.85;0.85;;;;;;;0.86;88.25;99728.69;5122503;28;20034;-80
2023/01/19 05:16:46;;;;;;;0.68;0.68;;;;;;;0.86;88.55;99727.81;5128800;28;20039;-79
2023/01/19 05:19:16;;;;;;;0.70;0.70;;;;;;;0.78;88.86;99727.84;5138012;28;20031;-80
2023/01/19 05:21:46;;;;;;;0.50;0.50;;;;;;;0.79;89.23;99734.72;5127923;28;20043;-80
2023/01/19 05:24:18;;;;;;;0.60;0.60;;;;;;;0.77;89.66;99742.47;5135779;28;20031;-80
2023/01/19 05:26:48;;;;;;;0.82;0.82;;;;;;;0.76;89.38;99745.06;5130399;28;20038;-80
2023/01/19 05:29:19;;;;;;;0.57;0.57;;;;;;;0.63;90.36;99745.06;5131574;28;20671;-80
2023/01/19 05:31:49;;;;;;;1.05;1.05;;;;;;;0.58;91.04;99739.06;5106949;28;20119;-80
2023/01/19 05:34:19;;;;;;;1.08;1.08;;;;;;;0.57;91.13;99746.84;5115484;28;20070;-80
2023/01/19 05:36:50;;;;;;;0.30;0.30;;;;;;;0.50;91.08;99738.22;5131111;28;20178;-81
2023/01/19 05:39:20;;;;;;;0.50;0.50;;;;;;;0.57;91.40;99747.69;5133527;28;20094;-80
2023/01/19 05:41:51;;;;;;;0.68;0.68;;;;;;;0.49;92.12;99751.16;5119965;28;20579;-80
2023/01/19 05:44:22;;;;;;;0.47;0.47;;;;;;;0.49;91.90;99754.56;5125423;28;20027;-79
2023/01/19 05:46:52;;;;;;;0.63;0.63;;;;;;;0.50;91.44;99748.56;5135054;28;20081;-80
2023/01/19 05:49:23;;;;;;;0.95;0.95;;;;;;;0.41;92.60;99757.19;5108834;28;20027;-80
2023/01/19 05:51:54;;;;;;;0.40;0.40;;;;;;;0.38;92.43;99754.59;5136947;28;20043;-80
2023/01/19 05:54:24;;;;;;;1.00;1.00;;;;;;;0.51;92.77;99755.44;5128057;28;20040;-81
2023/01/19 05:56:55;;;;;;;0.40;0.40;;;;;;;0.40;92.95;99758.03;5145373;28;20109;-81
2023/01/19 05:59:25;;;;;;;0.40;0.40;;;;;;;0.39;92.90;99752.84;5118123;28;20780;-79
2023/01/19 06:01:56;;;;;;;0.40;0.40;;;;;;;0.37;93.51;99754.59;5133876;28;20043;-80
2023/01/19 06:04:26;;;;;;;0.30;0.30;;;;;;;0.35;93.72;99757.16;5106450;28;20121;-81
2023/01/19 06:06:57;;;;;;;4.28;2.50;;;;;;;0.40;93.03;99759.75;5135793;28;20062;-81
2023/01/19 06:09:28;;;;;;;0.30;0.30;;;;;;;0.50;92.33;99761.47;5111659;28;20034;-82
2023/01/19 06:11:58;;;;;;;0.30;0.30;;;;;;;0.53;91.96;99766.63;5127430;28;20679;-80
2023/01/19 06:14:29;;;;;;;0.45;0.45;;;;;;;0.56;91.82;99758.00;5113161;28;20046;-83
2023/01/19 06:16:59;;;;;;;0.50;0.50;;;;;;;0.55;92.04;99771.78;5126171;28;20051;-81
2023/01/19 06:19:30;;;;;;;0.70;0.70;;;;;;;0.50;92.17;99763.19;5140008;28;20037;-82
2023/01/19 06:22:01;;;;;;;0.35;0.35;;;;;;;0.43;92.55;99767.50;5125722;28;20031;-80
2023/01/19 06:24:32;;;;;;;0.40;0.40;;;;;;;0.43;93.53;99767.50;5114128;28;20035;-80
2023/01/19 06:27:02;;;;;;;1.00;1.00;;;;;;;0.40;92.83;99770.06;5118222;28;20037;-81
2023/01/19 06:29:33;;;;;;;0.80;0.80;;;;;;;0.37;93.49;99775.25;5118146;28;20029;-83
2023/01/19 06:32:04;;;;;;;0.60;0.60;;;;;;;0.40;93.41;99780.38;5135328;28;20138;-78
2023/01/19 06:34:34;;;;;;;1.65;1.63;;;;;;;0.41;93.09;99774.38;5140306;28;20041;-82
2023/01/19 06:37:05;;;;;;;0.60;0.60;;;;;;;0.44;93.21;99774.38;5104242;28;20061;-84
2023/01/19 06:39:36;;;;;;;0.50;0.50;;;;;;;0.32;94.59;99777.84;5134410;28;20599;-80
2023/01/19 06:42:07;;;;;;;0.70;0.70;;;;;;;0.35;93.97;99784.72;5126138;28;20047;-81
2023/01/19 06:44:42;;;;;;;2.60;1.48;;;;;;;0.41;94.01;99787.28;5128317;28;20130;-82
2023/01/19 06:47:13;;;;;;;0.63;0.63;;;;;;;0.41;93.63;99789.84;5126962;28;20050;-82
2023/01/19 06:49:44;;;;;;;0.57;0.57;;;;;;;0.36;94.35;99797.59;5111196;28;20109;-83
2023/01/19 06:52:16;;;;;;;0.70;0.70;;;;;;;0.36;94.32;99794.16;5126520;28;20046;-80
2023/01/19 06:54:46;;;;;;;0.40;0.40;;;;;;;0.39;94.45;99794.16;5110727;28;20098;-80
2023/01/19 06:57:17;;;;;;;0.57;0.57;;;;;;;0.48;93.66;99796.72;5162280;28;20110;-81
2023/01/19 06:59:48;;;;;;;0.60;0.60;;;;;;;0.43;93.95;99798.47;5143352;28;20090;-81
2023/01/19 07:02:21;;;;;;;0.98;0.98;;;;;;;0.43;93.73;99808.78;5140283;28;20129;-80
2023/01/19 07:04:52;;;;;;;4.65;2.63;;;;;;;0.49;93.84;99813.94;5116451;29;20033;-81
2023/01/19 07:07:22;;;;;;;0.25;0.25;;;;;;;0.46;93.31;99824.25;5138704;28;20039;-81
2023/01/19 07:09:53;;;;;;;1.65;1.55;;;;;;;0.44;94.27;99821.69;5145350;28;20027;-80
2023/01/19 07:12:23;;;;;;;1.15;1.15;;;;;;;0.45;93.88;99822.56;5143433;28;20057;-80
2023/01/19 07:14:54;;;;;;;0.40;0.40;;;;;;;0.46;93.39;99821.69;5129867;28;20098;-80
2023/01/19 07:17:24;;;;;;;0.50;0.50;;;;;;;0.49;93.22;99829.44;5125756;28;20709;-81
2023/01/19 07:19:55;;;;;;;0.30;0.30;;;;;;;0.48;93.70;99835.44;5124562;28;20043;-80
2023/01/19 07:22:25;;;;;;;0.70;0.70;;;;;;;0.52;93.80;99826.84;5132474;28;20042;-81
2023/01/19 07:24:57;;;;;;;0.73;0.73;;;;;;;0.56;93.47;99831.16;5123388;28;20034;-81
2023/01/19 07:27:28;;;;;;;1.70;1.63;;;;;;;0.51;92.77;99837.16;5109088;28;20585;-79
2023/01/19 07:30:00;;;;;;;0.73;0.73;;;;;;;0.53;93.17;99838.91;5112943;29;20047;-81
2023/01/19 07:32:30;;;;;;;0.40;0.40;;;;;;;0.50;93.36;99841.47;5121472;28;20046;-80
2023/01/19 07:35:01;;;;;;;0.55;0.55;;;;;;;0.50;93.73;99836.31;5124070;28;20649;-81
2023/01/19 07:37:31;;;;;;;1.25;1.25;;;;;;;0.53;93.11;99841.50;5138873;28;20042;-82
2023/01/19 07:40:02;;;;;;;1.15;1.08;;;;;;;0.49;93.63;99839.75;5141663;28;20034;-82
2023/01/19 07:42:33;;;;;;;1.40;1.30;;;;;;;0.47;94.13;99838.88;5116640;28;20686;-81
2023/01/19 07:45:04;;;;;;;0.70;0.70;;;;;;;0.50;93.55;99841.47;5142537;28;20034;-80
2023/01/19 07:47:34;;;;;;;1.63;1.52;;;;;;;0.51;93.85;99843.19;5141418;28;20513;-81
2023/01/19 07:50:05;;;;;;;0.60;0.60;;;;;;;0.51;93.32;99845.78;5121370;28;20030;-81
2023/01/19 07:52:36;;;;;;;1.15;1.15;;;;;;;0.55;93.50;99851.81;5140318;28;20133;-81
2023/01/19 07:55:07;;;;;;;1.10;0.82;;;;;;;0.57;93.45;99857.84;5113797;28;20233;-79
2023/01/19 07:57:38;;;;;;;0.50;0.50;;;;;;;0.59;93.17;99871.59;5122733;28;20046;-80
2023/01/19 08:00:09;;;;;;;0.75;0.73;;;;;;;0.57;93.22;99871.59;5138008;28;20264;-81
2023/01/19 08:02:40;;;;;;;0.40;0.40;;;;;;;0.53;93.39;99877.63;5125565;28;20696;-82
2023/01/19 08:05:11;;;;;;;0.40;0.40;;;;;;;0.55;93.39;99877.63;5124620;28;20035;-83
2023/01/19 08:07:41;;;;;;;0.30;0.30;;;;;;;0.52;93.75;99886.22;5139046;28;20043;-84
2023/01/19 08:10:13;;;;;;;0.30;0.30;;;;;;;0.55;93.87;99886.22;5114462;28;20041;-84
2023/01/19 08:12:51;;;;;;;3.70;1.10;;;;;;;0.53;93.46;99887.94;5119571;28;20038;-82
2023/01/19 08:15:24;;;;;;;0.50;0.50;;;;;;;0.61;93.01;99890.53;5124716;28;20133;-81
2023/01/19 08:18:00;;;;;;;0.40;0.40;;;;;;;0.59;93.47;99897.41;5129721;28;20130;-83
2023/01/19 08:20:31;;;;;;;0.30;0.30;;;;;;;0.64;92.80;99900.88;5115981;28;20090;-81
2023/01/19 08:23:03;;;;;;;0.40;0.40;;;;;;;0.62;93.07;99897.41;5123081;28;20082;-81
2023/01/19 08:25:41;;;;;;;1.50;1.40;;;;;;;0.65;93.18;99899.13;5133636;28;20043;-83
2023/01/19 08:28:14;;;;;;;0.40;0.40;;;;;;;0.64;92.98;99900.88;5145432;28;20038;-82
2023/01/19 08:30:52;;;;;;;0.70;0.70;;;;;;;0.60;93.08;99907.75;5118144;28;20066;-81
2023/01/19 08:33:24;;;;;;;0.40;0.40;;;;;;;0.61;93.67;99912.06;5138329;28;20167;-81
2023/01/19 08:35:54;;;;;;;1.67;1.60;;;;;;;0.63;93.19;99920.63;5112970;28;20042;-82
2023/01/19 08:38:25;;;;;;;0.50;0.50;;;;;;;0.62;93.77;99918.91;5125360;28;20035;-81
2023/01/19 08:40:55;;;;;;;0.40;0.40;;;;;;;0.71;93.08;99917.19;5121314;28;20034;-80
2023/01/19 08:43:26;;;;;;;0.57;0.57;;;;;;;0.73;92.91;99923.22;5137404;28;20043;-80
2023/01/19 08:45:57;;;;;;;1.85;1.75;;;;;;;0.73;92.94;99925.81;5123386;28;20043;-81
2023/01/19 08:48:27;;;;;;;1.10;1.10;;;;;;;0.71;93.68;99932.69;5138671;28;20178;-81
2023/01/19 08:50:59;;;;;;;10.75;2.85;;;;;;;0.75;93.14;99940.44;5131566;28;20047;-81
2023/01/19 08:53:29;;;;;;;0.68;0.68;;;;;;;0.80;93.20;99937.84;5107330;28;20030;-81
2023/01/19 08:56:01;;;;;;;5.28;2.05;;;;;;;0.81;92.67;99931.00;5107722;28;20042;-82
2023/01/19 08:58:31;;;;;;;5.30;2.03;;;;;;;0.80;93.27;99945.59;5101686;28;20032;-80
2023/01/19 09:01:01;;;;;;;2.55;2.35;;;;;;;0.74;93.09;99938.75;5136113;28;20042;-81
2023/01/19 09:03:32;;;;;;;2.17;1.50;;;;;;;0.78;93.23;99947.34;5102807;28;20074;-80
2023/01/19 09:06:07;;;;;;;0.43;0.43;;;;;;;0.82;93.00;99951.66;5119179;28;20043;-81
2023/01/19 09:08:38;;;;;;;0.30;0.30;;;;;;;0.81;92.72;99955.09;5126623;28;20027;-81
2023/01/19 09:11:10;;;;;;;0.70;0.70;;;;;;;0.82;93.29;99961.13;5117904;28;20063;-81
2023/01/19 09:13:40;;;;;;;0.70;0.70;;;;;;;0.85;92.88;99955.94;5118621;28;20037;-82
2023/01/19 09:16:12;;;;;;;2.15;2.05;;;;;;;0.87;92.86;99961.97;5121706;28;20995;-81
2023/01/19 09:18:44;;;;;;;1.25;1.20;;;;;;;0.84;92.63;99968.00;5118992;28;20039;-79
2023/01/19 09:21:15;;;;;;;5.88;2.15;;;;;;;0.80;92.65;99968.84;5128182;28;20065;-79
2023/01/19 09:23:45;;;;;;;0.40;0.40;;;;;;;0.74;93.15;99974.91;5113127;28;20034;-78
2023/01/19 09:26:16;;;;;;;1.75;1.67;;;;;;;0.76;93.51;99973.16;5118980;28;20053;-80
2023/01/19 09:28:46;;;;;;;0.85;0.85;;;;;;;0.78;93.07;99973.19;5117592;28;20114;-80
2023/01/19 09:31:17;;;;;;;1.48;1.38;;;;;;;0.80;93.19;99974.00;5126640;28;20035;-80
2023/01/19 09:33:50;;;;;;;1.95;1.85;;;;;;;0.74;94.03;99979.19;5126905;28;20047;-80
2023/01/19 09:36:23;;;;;;;0.30;0.30;;;;;;;0.80;93.52;99978.34;5115842;28;20039;-80
2023/01/19 09:38:54;;;;;;;0.75;0.75;;;;;;;0.81;94.10;99982.66;5119977;28;20391;-80
2023/01/19 09:41:25;;;;;;;0.40;0.40;;;;;;;0.91;93.59;99987.81;5137133;28;20062;-79
2023/01/19 09:43:58;;;;;;;0.35;0.35;;;;;;;0.87;93.31;99991.25;5123398;28;20034;-79
2023/01/19 09:46:31;;;;;;;1.67;1.60;;;;;;;0.87;93.64;99993.81;5123685;28;20054;-80
2023/01/19 09:49:05;;;;;;;;;;;;;;;0.91;93.54;99997.28;5116091;28;20049;-80
2023/01/19 09:51:39;;;;;;;1.67;1.58;;;;;;;0.97;93.27;100001.56;5115695;28;20424;-79
2023/01/19 09:54:16;;;;;;;0.95;0.95;;;;;;;0.94;93.23;99999.88;5130670;28;20039;-80
2023/01/19 09:56:48;;;;;;;0.68;0.68;;;;;;;1.00;92.99;100001.59;5132238;28;20115;-80
2023/01/19 09:59:28;;;;;;;0.80;0.80;;;;;;;1.01;92.80;100005.91;5120413;28;20409;-80
2023/01/19 10:02:17;;;;;;;1.00;1.00;;;;;;;1.03;92.97;100011.94;5129005;28;20495;-80
2023/01/19 10:04:59;;;;;;;1.90;1.75;;;;;;;1.09;92.87;100027.44;5116747;28;20035;-80
2023/01/19 10:07:42;;;;;;;2.70;2.13;;;;;;;1.05;92.72;100026.56;5134431;28;20047;-81
2023/01/19 10:10:16;;;;;;;;;;;;;;;1.10;93.26;100030.00;5136831;28;20035;-80
2023/01/19 10:13:09;;;;;;;0.75;0.63;;;;;;;1.12;92.80;100030.00;5135750;28;19925;-80
2023/01/19 10:15:57;;;;;;;0.75;0.75;;;;;;;1.15;92.67;100029.16;5132465;28;20065;-81
2023/01/19 10:18:42;;;;;;;1.27;1.20;;;;;;;1.18;92.65;100035.19;5134686;28;20481;-80
2023/01/19 10:21:26;;;;;;;0.43;0.43;;;;;;;1.19;92.65;100031.75;5128767;28;20350;-80
2023/01/19 10:24:05;;;;;;;;;;;;;;;1.19;92.76;100033.47;5106187;28;20073;-80
2023/01/19 10:26:38;;;;;;;0.85;0.85;;;;;;;1.22;92.30;100033.47;5107205;28;20673;-80
2023/01/19 10:29:29;;;;;;;0.77;0.77;;;;;;;1.21;92.53;100032.59;5133234;28;20110;-79
2023/01/19 10:32:07;;;;;;;1.10;1.10;;;;;;;1.27;92.69;100039.50;5129120;28;20040;-80
2023/01/19 10:34:38;;;;;;;1.75;1.50;;;;;;;1.23;92.83;100028.28;5101104;28;20043;-79
2023/01/19 10:37:31;;;;;;;2.60;1.58;;;;;;;1.29;92.44;100036.91;5130442;28;20042;-79
2023/01/19 10:40:07;;;;;;;0.70;0.70;;;;;;;1.29;92.27;100037.78;5123175;28;20039;-80
2023/01/19 10:42:41;;;;;;;0.40;0.40;;;;;;;1.31;92.60;100037.78;5120066;28;20038;-84
2023/01/19 10:45:20;;;;;;;0.43;0.43;;;;;;;1.32;92.92;100040.38;5121317;28;20038;-81
2023/01/19 10:47:53;;;;;;;1.00;1.00;;;;;;;1.35;92.41;100044.69;5134505;28;20038;-81
2023/01/19 10:50:26;;;;;;;0.50;0.50;;;;;;;1.38;92.08;100037.78;5118677;28;20031;-81
2023/01/19 10:52:59;;;;;;;1.13;1.13;;;;;;;1.39;92.41;100036.03;5139435;28;20043;-81
2023/01/19 10:55:32;;;;;;;0.83;0.83;;;;;;;1.38;92.66;100040.38;5146109;28;20109;-81
2023/01/19 10:58:05;;;;;;;0.55;0.55;;;;;;;1.39;92.63;100042.09;5098808;28;20053;-81
2023/01/19 11:00:41;;;;;;;1.50;1.40;;;;;;;1.42;92.35;100036.91;5125146;28;20050;-80
2023/01/19 11:03:30;;;;;;;2.28;2.15;;;;;;;1.47;91.99;100034.31;5134492;28;20039;-82
2023/01/19 11:06:17;;;;;;;0.40;0.40;;;;;;;1.49;91.91;100037.78;5117961;28;20039;-81
2023/01/19 11:08:50;;;;;;;0.77;0.77;;;;;;;1.51;91.95;100041.22;5114982;28;20027;-81
2023/01/19 11:11:23;;;;;;;0.85;0.85;;;;;;;1.54;92.33;100048.97;5117307;28;20043;-80
2023/01/19 11:14:11;;;;;;;0.73;0.73;;;;;;;1.65;92.24;100048.09;5123227;28;20039;-80
2023/01/19 11:16:46;;;;;;;1.58;1.50;;;;;;;1.70;92.25;100041.19;5127462;28;20118;-79
2023/01/19 11:19:23;;;;;;;2.83;0.68;;;;;;;1.75;91.75;100039.47;5104548;28;20031;-81
2023/01/19 11:22:20;;;;;;;1.40;1.40;;;;;;;1.70;91.61;100044.63;5117432;28;20105;-80
2023/01/19 11:24:51;;;;;;;0.80;0.80;;;;;;;1.69;91.79;100047.25;5117307;28;20581;-79
2023/01/19 11:27:22;;;;;;;1.55;1.50;;;;;;;1.77;91.60;100048.09;5125482;28;20526;-80
2023/01/19 11:30:14;;;;;;;0.43;0.43;;;;;;;1.74;91.26;100048.09;5122804;28;20090;-79
2023/01/19 11:32:45;;;;;;;1.05;1.05;;;;;;;1.75;90.98;100048.94;5126003;28;20034;-81
2023/01/19 11:35:45;;;;;;;1.17;1.13;;;;;;;1.72;91.53;100047.22;5135310;28;20086;-82
2023/01/19 11:38:22;;;;;;;0.82;0.82;;;;;;;1.73;91.48;100052.41;5098589;29;20058;-82
2023/01/19 11:40:55;;;;;;;0.40;0.40;;;;;;;1.77;91.38;100050.69;5110582;28;20046;-82
2023/01/19 11:43:27;;;;;;;;;;;;;;;1.78;91.24;100052.38;5124614;29;21003;-82
2023/01/19 11:45:58;;;;;;;0.88;0.88;;;;;;;1.80;91.01;100052.38;5125689;28;19918;-83
2023/01/19 11:48:37;;;;;;;2.88;2.03;;;;;;;1.87;91.53;100054.94;5102261;29;20031;-84
2023/01/19 11:51:15;;;;;;;0.30;0.30;;;;;;;1.85;91.00;100050.66;5097791;29;20032;-82
2023/01/19 11:53:51;;;;;;;1.65;1.38;;;;;;;1.84;90.92;100057.56;5130807;28;20086;-84
2023/01/19 11:56:28;;;;;;;0.73;0.73;;;;;;;1.85;91.12;100051.53;5104177;28;20043;-84
2023/01/19 11:58:58;;;;;;;3.25;2.10;;;;;;;1.89;91.00;100050.63;5118291;28;20510;-86
2023/01/19 12:01:32;;;;;;;5.72;2.05;;;;;;;1.93;91.41;100042.88;5109445;28;20054;-84
2023/01/19 12:04:13;;;;;;;5.32;1.60;;;;;;;1.93;91.19;100050.63;5117225;29;20034;-84
2023/01/19 12:06:49;;;;;;;1.98;1.88;;;;;;;1.95;91.00;100043.72;5109137;29;20059;-83
2023/01/19 12:09:32;;;;;;;0.75;0.75;;;;;;;2.06;90.92;100049.72;5116406;29;20038;-83
2023/01/19 12:12:10;;;;;;;2.72;2.08;;;;;;;2.02;91.30;100048.88;5127145;28;20035;-85
2023/01/19 12:14:55;;;;;;;0.82;0.82;;;;;;;2.00;90.86;100042.84;5114966;29;20032;-82
2023/01/19 12:17:31;;;;;;;0.60;0.60;;;;;;;2.03;90.96;100052.31;5114899;28;20047;-82
2023/01/19 12:20:32;;;;;;;1.10;1.08;;;;;;;1.99;90.94;100048.03;5107235;29;20059;-84
2023/01/19 12:23:09;;;;;;;0.82;0.82;;;;;;;1.98;90.78;100046.31;5100236;29;20062;-83
2023/01/19 12:25:50;;;;;;;0.88;0.88;;;;;;;2.03;90.42;100044.56;5109233;28;20043;-82
2023/01/19 12:28:30;;;;;;;3.53;2.10;;;;;;;2.04;90.47;100039.38;5136745;28;20091;-83